createdAt,value
2023-03-05T00:00:12.552Z,2.00
2023-03-05T00:03:14.142Z,1.50
2023-03-05T00:06:16.646Z,1.92
2023-03-05T00:09:19.012Z,2.22
2023-03-05T00:12:20.617Z,1.90
2023-03-05T00:15:22.218Z,2.27
2023-03-05T00:18:24.000Z,2.10
2023-03-05T00:21:28.038Z,2.47
2023-03-05T00:24:30.200Z,2.00
2023-03-05T00:27:31.667Z,2.37
2023-03-05T00:30:33.484Z,1.87
2023-03-05T00:33:35.228Z,2.28
2023-03-05T00:36:40.227Z,1.67
2023-03-05T00:39:42.416Z,1.88
2023-03-05T00:42:43.959Z,2.10
2023-03-05T00:45:45.276Z,1.57
2023-03-05T00:48:46.752Z,1.88
2023-03-05T00:51:48.080Z,1.80
2023-03-05T00:54:50.295Z,1.83
2023-03-05T00:57:51.768Z,2.00
2023-03-05T01:00:56.580Z,1.90
2023-03-05T01:03:59.314Z,1.70
2023-03-05T01:07:00.745Z,1.67
2023-03-05T01:10:07.066Z,1.80
2023-03-05T01:13:08.585Z,1.43
2023-03-05T01:16:11.922Z,1.10
2023-03-05T01:19:14.359Z,1.30
2023-03-05T01:22:15.715Z,1.58
2023-03-05T01:25:18.346Z,1.27
2023-03-05T01:28:19.848Z,1.53
2023-03-05T01:31:21.252Z,1.53
2023-03-05T01:34:22.853Z,1.40
2023-03-05T01:37:24.162Z,1.35
2023-03-05T01:40:29.505Z,1.10
2023-03-05T01:43:30.956Z,1.30
2023-03-05T01:46:34.548Z,1.40
2023-03-05T01:49:38.270Z,1.40
2023-03-05T01:52:43.526Z,1.33
2023-03-05T01:55:45.968Z,1.20
2023-03-05T01:58:47.454Z,1.80
2023-03-05T02:01:52.839Z,1.20
2023-03-05T02:04:57.322Z,1.30
2023-03-05T02:08:00.534Z,1.25
2023-03-05T02:11:03.413Z,1.23
2023-03-05T02:14:08.444Z,1.20
2023-03-05T02:17:11.804Z,1.30
2023-03-05T02:20:18.051Z,1.33
2023-03-05T02:23:21.763Z,1.30
2023-03-05T02:26:23.056Z,1.17
2023-03-05T02:29:24.355Z,1.37
2023-03-05T02:32:25.834Z,1.83
2023-03-05T02:35:27.333Z,1.27
2023-03-05T02:38:29.479Z,1.10
2023-03-05T02:41:30.909Z,1.00
2023-03-05T02:44:32.441Z,1.43
2023-03-05T02:47:33.884Z,1.30
2023-03-05T02:50:36.146Z,1.00
2023-03-05T02:53:38.242Z,1.00
2023-03-05T02:56:39.696Z,1.13
2023-03-05T02:59:41.038Z,1.50
2023-03-05T03:02:42.660Z,1.30
2023-03-05T03:05:44.034Z,1.45
2023-03-05T03:08:50.003Z,1.15
2023-03-05T03:11:51.444Z,1.30
2023-03-05T03:14:52.777Z,1.10
2023-03-05T03:17:54.671Z,1.30
2023-03-05T03:20:55.987Z,1.20
2023-03-05T03:23:58.490Z,0.80
2023-03-05T03:27:00.129Z,0.98
2023-03-05T03:30:04.010Z,1.20
2023-03-05T03:33:05.496Z,1.40
2023-03-05T03:36:07.636Z,1.25
2023-03-05T03:39:09.962Z,1.40
2023-03-05T03:42:11.527Z,1.67
2023-03-05T03:45:13.278Z,1.70
2023-03-05T03:48:14.734Z,1.10
2023-03-05T03:51:16.048Z,1.50
2023-03-05T03:54:19.393Z,1.15
2023-03-05T03:57:20.978Z,1.10
2023-03-05T04:00:22.449Z,1.43
2023-03-05T04:03:23.947Z,1.30
2023-03-05T04:06:25.375Z,1.15
2023-03-05T04:09:27.513Z,1.52
2023-03-05T04:12:28.778Z,1.67
2023-03-05T04:15:30.188Z,1.20
2023-03-05T04:18:32.578Z,1.10
2023-03-05T04:21:34.043Z,1.25
2023-03-05T04:24:36.137Z,1.60
2023-03-05T04:27:39.348Z,1.40
2023-03-05T04:30:40.868Z,1.23
2023-03-05T04:33:42.412Z,1.40
2023-03-05T04:36:43.802Z,1.38
2023-03-05T04:39:45.859Z,1.00
2023-03-05T04:42:47.405Z,1.35
2023-03-05T04:45:48.935Z,1.47
2023-03-05T04:48:50.392Z,1.20
2023-03-05T04:51:51.662Z,1.20
2023-03-05T04:54:53.892Z,1.30
2023-03-05T04:57:55.161Z,1.60
2023-03-05T05:01:01.425Z,1.60
2023-03-05T05:04:02.846Z,1.10
2023-03-05T05:07:04.446Z,1.10
2023-03-05T05:10:07.889Z,1.30
2023-03-05T05:13:09.215Z,1.45
2023-03-05T05:16:10.843Z,1.57
2023-03-05T05:19:12.342Z,1.37
2023-03-05T05:22:13.616Z,1.05
2023-03-05T05:25:15.655Z,1.92
2023-03-05T05:28:16.921Z,1.20
2023-03-05T05:31:19.077Z,1.10
2023-03-05T05:34:20.482Z,1.10
2023-03-05T05:37:21.908Z,1.45
2023-03-05T05:40:23.888Z,1.10
2023-03-05T05:43:25.220Z,0.88
2023-03-05T05:46:28.222Z,1.50
2023-03-05T05:49:29.556Z,1.57
2023-03-05T05:52:31.159Z,1.15
2023-03-05T05:55:33.182Z,1.20
2023-03-05T05:58:34.789Z,1.27
2023-03-05T06:01:36.365Z,1.47
2023-03-05T06:04:39.228Z,1.33
2023-03-05T06:07:40.560Z,1.52
2023-03-05T06:10:42.600Z,1.70
2023-03-05T06:13:44.054Z,1.58
2023-03-05T06:16:45.373Z,1.30
2023-03-05T06:19:46.735Z,1.43
2023-03-05T06:22:48.055Z,1.58
2023-03-05T06:25:50.288Z,1.80
2023-03-05T06:28:52.317Z,1.52
2023-03-05T06:31:53.752Z,1.50
2023-03-05T06:34:55.230Z,1.50
2023-03-05T06:37:56.669Z,1.95
2023-03-05T06:41:01.460Z,1.60
2023-03-05T06:44:03.347Z,1.45
2023-03-05T06:47:04.903Z,1.87
2023-03-05T06:50:06.767Z,1.37
2023-03-05T06:53:08.125Z,1.88
2023-03-05T06:56:10.560Z,1.60
2023-03-05T06:59:14.286Z,1.60
2023-03-05T07:02:16.063Z,1.33
2023-03-05T07:05:17.512Z,1.53
2023-03-05T07:08:19.036Z,1.38
2023-03-05T07:11:22.023Z,1.42
2023-03-05T07:14:23.393Z,1.33
2023-03-05T07:17:24.953Z,1.67
2023-03-05T07:20:26.271Z,1.30
2023-03-05T07:23:27.969Z,1.40
2023-03-05T07:26:32.552Z,1.80
2023-03-05T07:29:34.080Z,1.23
2023-03-05T07:32:35.815Z,1.13
2023-03-05T07:35:40.233Z,0.90
2023-03-05T07:38:41.627Z,0.93
2023-03-05T07:41:43.548Z,1.10
2023-03-05T07:44:45.227Z,1.08
2023-03-05T07:47:46.721Z,1.00
2023-03-05T07:50:48.571Z,1.33
2023-03-05T07:53:52.164Z,1.55
2023-03-05T07:56:54.773Z,0.80
2023-03-05T07:59:56.344Z,1.25
2023-03-05T08:02:57.651Z,0.80
2023-03-05T08:05:58.950Z,3.00
2023-03-05T08:09:00.630Z,1.83
2023-03-05T08:12:02.707Z,1.58
2023-03-05T08:15:04.736Z,1.05
2023-03-05T08:18:06.232Z,1.77
2023-03-05T08:21:15.581Z,1.10
2023-03-05T08:24:17.054Z,1.58
2023-03-05T08:27:18.987Z,0.80
2023-03-05T08:30:21.941Z,1.40
2023-03-05T08:33:23.219Z,2.10
2023-03-05T08:36:24.871Z,1.17
2023-03-05T08:39:26.350Z,1.15
2023-03-05T08:42:28.291Z,1.20
2023-03-05T08:45:29.676Z,1.30
2023-03-05T08:48:31.525Z,1.00
2023-03-05T08:51:34.029Z,1.30
2023-03-05T08:54:36.727Z,2.05
2023-03-05T08:57:38.661Z,1.60
2023-03-05T09:00:40.458Z,1.15
2023-03-05T09:03:42.114Z,1.43
2023-03-05T09:06:43.400Z,1.00
2023-03-05T09:09:44.866Z,0.88
2023-03-05T09:12:48.431Z,1.27
2023-03-05T09:15:54.431Z,1.67
2023-03-05T09:18:55.906Z,1.00
2023-03-05T09:21:57.286Z,1.87
2023-03-05T09:24:58.708Z,1.50
2023-03-05T09:28:00.646Z,2.38
2023-03-05T09:31:03.526Z,1.42
2023-03-05T09:34:06.542Z,2.47
2023-03-05T09:37:08.434Z,1.27
2023-03-05T09:40:15.446Z,1.40
2023-03-05T09:43:30.152Z,1.30
2023-03-05T09:46:44.141Z,1.35
2023-03-05T09:49:53.631Z,1.80
2023-03-05T09:52:59.151Z,1.10
2023-03-05T09:56:04.800Z,1.38
2023-03-05T09:59:19.888Z,2.30
2023-03-05T10:02:25.803Z,3.13
2023-03-05T10:05:37.151Z,1.50
2023-03-05T10:08:48.583Z,1.60
2023-03-05T10:11:54.654Z,1.30
2023-03-05T10:15:00.057Z,1.60
2023-03-05T10:18:18.321Z,1.23
2023-03-05T10:21:29.845Z,1.40
2023-03-05T10:24:45.393Z,1.47
2023-03-05T10:27:49.250Z,1.30
2023-03-05T10:31:02.868Z,1.33
2023-03-05T10:34:30.041Z,1.95
2023-03-05T10:37:49.674Z,1.53
2023-03-05T10:40:54.086Z,1.57
2023-03-05T10:44:03.780Z,1.55
2023-03-05T10:47:15.705Z,1.30
2023-03-05T10:50:20.028Z,1.30
2023-03-05T10:53:27.509Z,1.50
2023-03-05T10:56:31.052Z,1.50
2023-03-05T10:59:32.385Z,1.20
2023-03-05T11:02:53.379Z,1.35
2023-03-05T11:06:01.063Z,1.83
2023-03-05T11:09:20.941Z,1.57
2023-03-05T11:12:26.996Z,1.27
2023-03-05T11:15:30.030Z,1.13
2023-03-05T11:18:34.152Z,1.55
2023-03-05T11:21:35.441Z,1.33
2023-03-05T11:24:37.142Z,1.40
2023-03-05T11:27:43.886Z,1.20
2023-03-05T11:30:55.589Z,1.25
2023-03-05T11:34:00.963Z,1.33
2023-03-05T11:37:05.472Z,1.80
2023-03-05T11:40:22.895Z,2.27
2023-03-05T11:43:25.820Z,2.00
2023-03-05T11:46:28.471Z,2.17
2023-03-05T11:49:33.461Z,1.60
2023-03-05T11:52:45.469Z,3.17
2023-03-05T11:55:50.240Z,3.70
2023-03-05T11:58:56.914Z,1.50
2023-03-05T12:01:58.536Z,1.98
2023-03-05T12:05:02.526Z,2.10
2023-03-05T12:08:05.225Z,1.40
2023-03-05T12:11:14.609Z,1.40
2023-03-05T12:14:23.623Z,1.50
2023-03-05T12:17:32.308Z,1.10
2023-03-05T12:20:42.603Z,1.48
2023-03-05T12:23:46.591Z,1.38
2023-03-05T12:26:56.336Z,1.70
2023-03-05T12:30:00.767Z,1.50
2023-03-05T12:33:03.296Z,1.25
2023-03-05T12:36:36.114Z,1.25
2023-03-05T12:39:57.028Z,1.48
2023-03-05T12:43:00.428Z,1.60
2023-03-05T12:46:24.992Z,1.20
2023-03-05T12:49:35.086Z,1.55
2023-03-05T12:52:39.908Z,1.00
2023-03-05T12:55:55.015Z,1.15
2023-03-05T12:58:59.882Z,1.50
2023-03-05T13:02:10.700Z,1.40
2023-03-05T13:05:20.897Z,1.57
2023-03-05T13:08:25.216Z,1.73
2023-03-05T13:11:28.652Z,2.42
2023-03-05T13:14:34.317Z,2.65
2023-03-05T13:17:38.380Z,2.00
2023-03-05T13:20:42.023Z,1.87
2023-03-05T13:23:47.510Z,1.65
2023-03-05T13:26:49.015Z,2.45
2023-03-05T13:29:52.043Z,2.10
2023-03-05T13:33:02.111Z,1.77
2023-03-05T13:36:04.963Z,1.40
2023-03-05T13:39:07.137Z,1.80
2023-03-05T13:42:16.778Z,1.17
2023-03-05T13:45:26.643Z,1.40
2023-03-05T13:48:28.168Z,0.80
2023-03-05T13:51:43.577Z,1.90
2023-03-05T13:54:45.666Z,1.25
2023-03-05T13:57:50.099Z,1.52
2023-03-05T14:01:04.640Z,1.50
2023-03-05T14:04:17.612Z,1.13
2023-03-05T14:07:31.165Z,1.20
2023-03-05T14:10:36.325Z,1.55
2023-03-05T14:13:37.931Z,1.50
2023-03-05T14:16:39.360Z,1.50
2023-03-05T14:19:40.808Z,1.33
2023-03-05T14:22:44.707Z,1.03
2023-03-05T14:25:46.964Z,1.33
2023-03-05T14:28:53.034Z,1.50
2023-03-05T14:31:56.932Z,1.20
2023-03-05T14:35:00.408Z,1.10
2023-03-05T14:38:02.071Z,1.03
2023-03-05T14:41:20.509Z,1.33
2023-03-05T14:44:24.641Z,1.50
2023-03-05T14:47:27.529Z,0.73
2023-03-05T14:50:31.836Z,1.43
2023-03-05T14:53:38.180Z,1.20
2023-03-05T14:56:40.155Z,1.60
2023-03-05T14:59:41.518Z,1.60
2023-03-05T15:02:43.002Z,1.40
2023-03-05T15:05:47.139Z,1.20
2023-03-05T15:08:48.551Z,1.20
2023-03-05T15:11:50.553Z,1.77
2023-03-05T15:14:52.463Z,1.20
2023-03-05T15:17:55.300Z,1.00
2023-03-05T15:20:56.811Z,1.20
2023-03-05T15:23:58.860Z,1.50
2023-03-05T15:27:02.506Z,1.10
2023-03-05T15:30:04.742Z,1.38
2023-03-05T15:33:08.794Z,1.60
2023-03-05T15:36:10.320Z,1.43
2023-03-05T15:39:11.975Z,1.30
2023-03-05T15:42:13.990Z,1.20
2023-03-05T15:45:15.975Z,1.50
2023-03-05T15:48:17.494Z,1.13
2023-03-05T15:51:20.505Z,1.70
2023-03-05T15:54:22.129Z,1.60
2023-03-05T15:57:24.060Z,1.60
2023-03-05T16:00:30.229Z,1.02
2023-03-05T16:03:31.661Z,0.95
2023-03-05T16:06:34.066Z,1.27
2023-03-05T16:09:38.509Z,1.40
2023-03-05T16:12:42.208Z,1.33
2023-03-05T16:15:44.425Z,1.17
2023-03-05T16:18:47.461Z,1.40
2023-03-05T16:21:48.744Z,1.30
2023-03-05T16:24:50.236Z,1.40
2023-03-05T16:27:52.159Z,1.20
2023-03-05T16:30:54.194Z,1.52
2023-03-05T16:33:55.600Z,1.30
2023-03-05T16:37:00.067Z,2.27
2023-03-05T16:40:01.537Z,1.57
2023-03-05T16:43:03.688Z,1.80
2023-03-05T16:46:05.169Z,2.28
2023-03-05T16:49:06.652Z,1.70
2023-03-05T16:52:19.487Z,1.37
2023-03-05T16:55:21.599Z,1.83
2023-03-05T16:58:23.640Z,1.50
2023-03-05T17:01:25.549Z,1.80
2023-03-05T17:04:27.071Z,1.70
2023-03-05T17:07:28.517Z,2.17
2023-03-05T17:10:30.457Z,1.40
2023-03-05T17:13:32.368Z,1.60
2023-03-05T17:16:33.868Z,2.08
2023-03-05T17:19:35.237Z,1.98
2023-03-05T17:22:36.734Z,2.13
2023-03-05T17:25:38.059Z,1.60
2023-03-05T17:28:40.328Z,1.50
2023-03-05T17:31:41.742Z,1.65
2023-03-05T17:34:43.668Z,1.42
2023-03-05T17:37:45.170Z,1.40
2023-03-05T17:40:46.645Z,1.30
2023-03-05T17:43:49.533Z,3.72
2023-03-05T17:46:50.981Z,2.58
2023-03-05T17:49:52.411Z,1.70
2023-03-05T17:52:54.494Z,2.10
2023-03-05T17:55:56.015Z,2.43
2023-03-05T17:58:58.193Z,2.33
2023-03-05T18:01:59.976Z,2.45
2023-03-05T18:05:03.242Z,2.00
2023-03-05T18:08:05.643Z,2.33
2023-03-05T18:11:06.963Z,2.00
2023-03-05T18:14:09.080Z,1.90
2023-03-05T18:17:10.374Z,2.35
2023-03-05T18:20:24.015Z,2.10
2023-03-05T18:23:25.275Z,2.00
2023-03-05T18:26:26.736Z,2.03
2023-03-05T18:29:28.661Z,1.98
2023-03-05T18:32:30.414Z,3.25
2023-03-05T18:35:32.779Z,2.85
2023-03-05T18:38:34.607Z,2.30
2023-03-05T18:41:36.474Z,2.60
2023-03-05T18:44:38.663Z,2.40
2023-03-05T18:47:41.308Z,2.20
2023-03-05T18:50:43.188Z,1.95
2023-03-05T18:53:44.717Z,2.80
2023-03-05T18:56:46.042Z,2.87
2023-03-05T18:59:48.015Z,3.00
2023-03-05T19:02:49.549Z,2.42
2023-03-05T19:05:51.411Z,1.90
2023-03-05T19:08:56.828Z,2.23
2023-03-05T19:11:58.160Z,2.03
2023-03-05T19:15:01.281Z,2.13
2023-03-05T19:18:02.585Z,2.47
2023-03-05T19:21:04.500Z,2.20
2023-03-05T19:24:06.146Z,1.90
2023-03-05T19:27:10.945Z,1.60
2023-03-05T19:30:15.158Z,1.85
2023-03-05T19:33:16.599Z,1.88
2023-03-05T19:36:17.960Z,1.52
2023-03-05T19:39:19.480Z,2.20
2023-03-05T19:42:20.836Z,1.90
2023-03-05T19:45:22.988Z,2.05
2023-03-05T19:48:24.269Z,2.28
2023-03-05T19:51:26.523Z,2.20
2023-03-05T19:54:27.952Z,2.17
2023-03-05T19:57:29.385Z,2.03
2023-03-05T20:00:31.373Z,2.38
2023-03-05T20:03:32.836Z,2.67
2023-03-05T20:06:34.199Z,2.72
2023-03-05T20:09:35.664Z,2.53
2023-03-05T20:12:38.386Z,2.37
2023-03-05T20:15:40.534Z,2.38
2023-03-05T20:18:41.839Z,2.83
2023-03-05T20:21:44.932Z,2.95
2023-03-05T20:24:46.803Z,3.17
2023-03-05T20:27:48.289Z,3.27
2023-03-05T20:30:54.022Z,2.78
2023-03-05T20:33:55.794Z,3.22
2023-03-05T20:36:57.585Z,3.05
2023-03-05T20:39:58.855Z,2.83
2023-03-05T20:43:00.155Z,2.47
2023-03-05T20:46:03.559Z,2.33
2023-03-05T20:49:05.645Z,2.80
2023-03-05T20:52:06.938Z,2.80
2023-03-05T20:55:09.542Z,2.80
2023-03-05T20:58:11.403Z,2.90
2023-03-05T21:01:13.709Z,2.67
2023-03-05T21:04:15.620Z,2.97
2023-03-05T21:07:17.188Z,2.70
2023-03-05T21:10:19.574Z,2.73
2023-03-05T21:13:21.206Z,2.40
2023-03-05T21:16:26.011Z,2.42
2023-03-05T21:19:27.537Z,2.17
2023-03-05T21:22:28.810Z,2.50
2023-03-05T21:25:31.568Z,2.70
2023-03-05T21:28:32.936Z,3.07
2023-03-05T21:31:36.840Z,2.60
2023-03-05T21:34:38.145Z,2.00
2023-03-05T21:37:41.913Z,2.50
2023-03-05T21:40:47.618Z,2.67
2023-03-05T21:43:49.040Z,2.20
2023-03-05T21:46:51.033Z,2.45
2023-03-05T21:49:52.491Z,2.95
2023-03-05T21:52:54.033Z,2.35
2023-03-05T21:56:04.552Z,2.53
2023-03-05T21:59:05.855Z,2.07
2023-03-05T22:02:11.457Z,1.95
2023-03-05T22:05:14.808Z,2.50
2023-03-05T22:08:16.366Z,1.98
2023-03-05T22:11:18.206Z,2.47
2023-03-05T22:14:19.815Z,2.20
2023-03-05T22:17:21.798Z,2.10
2023-03-05T22:20:23.235Z,2.35
2023-03-05T22:23:28.454Z,1.98
2023-03-05T22:26:34.549Z,2.50
2023-03-05T22:29:35.786Z,2.50
2023-03-05T22:32:37.984Z,2.20
2023-03-05T22:35:40.130Z,2.58
2023-03-05T22:38:42.416Z,2.58
2023-03-05T22:41:43.739Z,2.50
2023-03-05T22:44:45.185Z,2.97
2023-03-05T22:47:48.908Z,2.65
2023-03-05T22:50:55.225Z,2.65
2023-03-05T22:53:56.515Z,2.85
2023-03-05T22:56:58.041Z,2.90
2023-03-05T22:59:59.424Z,2.80
2023-03-05T23:03:01.644Z,2.55
2023-03-05T23:06:04.305Z,2.95
2023-03-05T23:09:05.867Z,3.20
2023-03-05T23:12:07.653Z,3.20
2023-03-05T23:15:12.093Z,3.27
2023-03-05T23:18:14.486Z,2.95
2023-03-05T23:21:15.857Z,3.38
2023-03-05T23:24:17.582Z,3.25
2023-03-05T23:27:19.390Z,3.67
2023-03-05T23:30:22.088Z,3.10
2023-03-05T23:33:24.216Z,2.90
2023-03-05T23:36:26.077Z,2.83
2023-03-05T23:39:27.362Z,2.58
2023-03-05T23:42:28.833Z,2.63
2023-03-05T23:45:30.736Z,2.47
2023-03-05T23:48:32.814Z,2.58
2023-03-05T23:51:34.396Z,2.50
2023-03-05T23:54:35.845Z,2.50
2023-03-05T23:57:37.270Z,2.55
